Terminal Aerodrome Forecast
Issued by NWS Central Illinois

Home | Current Version | Previous Version | Text Only | Print | Product List | Glossary On
Versions: 1 2 3 4 5 6 7 8 9 10 11 12 13 14
000
FTUS43 KILX 241732
TAFPIA
TAF
KPIA 241732Z 2418/2518 18015G23KT P6SM VCTS BKN035CB
     FM250000 18015KT P6SM SCT030 BKN060
     FM250500 17016G23KT 5SM -SHRA VCTS BKN025CB
     FM251500 23015G23KT P6SM BKN025=

USA.gov is the U.S. government's official web portal to all federal, state and local government web resources and services.